createdAt,value
2022-10-07T00:02:59.833Z,2.75
2022-10-07T00:05:41.819Z,2.90
2022-10-07T00:08:22.838Z,2.58
2022-10-07T00:11:03.789Z,3.67
2022-10-07T00:13:46.068Z,2.55
2022-10-07T00:16:37.835Z,2.88
2022-10-07T00:19:20.821Z,3.20
2022-10-07T00:22:07.766Z,3.08
2022-10-07T00:24:41.864Z,2.70
2022-10-07T00:27:28.801Z,2.80
2022-10-07T00:30:02.845Z,2.83
2022-10-07T00:32:50.796Z,2.40
2022-10-07T00:35:24.829Z,2.40
2022-10-07T00:38:11.774Z,3.28
2022-10-07T00:40:45.874Z,3.20
2022-10-07T00:43:36.744Z,3.22
2022-10-07T00:46:21.903Z,3.50
2022-10-07T00:49:11.763Z,3.88
2022-10-07T00:51:45.824Z,3.33
2022-10-07T00:54:33.756Z,2.97
2022-10-07T00:57:07.876Z,3.50
2022-10-07T00:59:55.766Z,3.20
2022-10-07T01:02:39.820Z,2.67
2022-10-07T01:05:34.788Z,2.40
2022-10-07T01:08:28.751Z,2.50
2022-10-07T01:11:20.789Z,2.65
2022-10-07T01:14:01.784Z,2.28
2022-10-07T01:16:51.210Z,2.90
2022-10-07T01:20:15.731Z,2.90
2022-10-07T01:23:08.901Z,2.88
2022-10-07T01:26:05.756Z,2.67
2022-10-07T01:28:45.741Z,2.53
2022-10-07T01:31:28.867Z,2.80
2022-10-07T01:34:10.770Z,2.70
2022-10-07T01:36:52.914Z,2.00
2022-10-07T01:39:37.759Z,2.55
2022-10-07T01:42:18.822Z,3.80
2022-10-07T01:45:00.767Z,2.97
2022-10-07T01:47:48.758Z,2.75
2022-10-07T01:50:32.785Z,2.88
2022-10-07T01:53:35.753Z,2.40
2022-10-07T01:56:16.784Z,2.85
2022-10-07T01:59:05.465Z,4.55
2022-10-07T02:01:45.852Z,2.92
2022-10-07T02:04:32.843Z,2.80
2022-10-07T02:07:15.761Z,2.70
2022-10-07T02:10:05.782Z,2.58
2022-10-07T02:12:42.463Z,2.75
2022-10-07T02:15:45.833Z,3.63
2022-10-07T02:18:26.786Z,2.60
2022-10-07T02:21:08.820Z,3.85
2022-10-07T02:23:50.774Z,2.70
2022-10-07T02:26:32.877Z,2.92
2022-10-07T02:29:16.796Z,3.58
2022-10-07T02:31:57.893Z,2.63
2022-10-07T02:34:38.754Z,2.58
2022-10-07T02:37:26.871Z,2.70
2022-10-07T02:40:12.206Z,2.58
2022-10-07T02:43:04.389Z,5.20
2022-10-07T02:45:44.781Z,2.90
2022-10-07T02:48:26.846Z,3.03
2022-10-07T02:51:09.774Z,2.45
2022-10-07T02:53:50.898Z,3.45
2022-10-07T02:56:32.788Z,2.42
2022-10-07T02:59:14.858Z,2.90
2022-10-07T03:01:57.866Z,2.95
2022-10-07T03:04:45.773Z,2.75
2022-10-07T03:07:42.066Z,3.10
2022-10-07T03:10:29.789Z,2.80
2022-10-07T03:13:05.074Z,2.92
2022-10-07T03:15:52.818Z,2.92
2022-10-07T03:18:27.368Z,3.13
2022-10-07T03:21:14.796Z,2.63
2022-10-07T03:23:48.851Z,3.40
2022-10-07T03:26:36.768Z,3.50
2022-10-07T03:29:11.210Z,3.13
2022-10-07T03:32:00.760Z,3.08
2022-10-07T03:34:34.905Z,3.40
2022-10-07T03:37:21.799Z,3.42
2022-10-07T03:39:55.865Z,3.47
2022-10-07T03:42:42.773Z,3.63
2022-10-07T03:45:16.831Z,3.60
2022-10-07T03:48:04.805Z,3.20
2022-10-07T03:50:38.832Z,3.75
2022-10-07T03:53:26.797Z,3.17
2022-10-07T03:56:07.789Z,3.45
2022-10-07T03:59:01.769Z,3.15
2022-10-07T04:01:48.852Z,3.55
2022-10-07T04:04:29.788Z,2.85
2022-10-07T04:07:17.124Z,4.35
2022-10-07T04:09:57.786Z,3.42
2022-10-07T04:12:39.812Z,2.88
2022-10-07T04:15:13.862Z,3.13
2022-10-07T04:18:04.808Z,4.03
2022-10-07T04:20:38.951Z,4.22
2022-10-07T04:23:25.768Z,4.13
2022-10-07T04:26:00.801Z,4.05
2022-10-07T04:28:49.003Z,3.50
2022-10-07T04:31:22.932Z,4.60
2022-10-07T04:34:10.789Z,3.45
2022-10-07T04:36:51.789Z,4.15
2022-10-07T04:39:59.783Z,3.85
2022-10-07T04:42:59.801Z,4.45
2022-10-07T04:45:47.812Z,3.83
2022-10-07T04:48:29.848Z,3.67
2022-10-07T04:51:10.795Z,4.10
2022-10-07T04:53:56.916Z,4.18
2022-10-07T04:56:37.787Z,4.35
2022-10-07T04:59:23.491Z,4.05
2022-10-07T05:02:04.888Z,4.07
2022-10-07T05:04:45.900Z,3.47
2022-10-07T05:07:26.793Z,4.32
2022-10-07T05:10:07.916Z,3.40
2022-10-07T05:12:52.533Z,4.75
2022-10-07T05:15:42.803Z,4.18
2022-10-07T05:18:17.741Z,4.13
2022-10-07T05:21:05.875Z,4.85
2022-10-07T05:23:39.782Z,5.40
2022-10-07T05:26:27.792Z,4.10
2022-10-07T05:29:01.748Z,5.07
2022-10-07T05:31:49.888Z,3.92
2022-10-07T05:34:23.822Z,4.03
2022-10-07T05:37:11.820Z,5.32
2022-10-07T05:39:52.903Z,4.93
2022-10-07T05:42:33.842Z,5.00
2022-10-07T05:45:14.811Z,5.20
2022-10-07T05:47:55.968Z,3.92
2022-10-07T05:50:35.835Z,4.57
2022-10-07T05:53:16.866Z,4.40
2022-10-07T05:55:57.796Z,4.82
2022-10-07T05:58:39.014Z,4.40
2022-10-07T06:01:23.797Z,4.00
2022-10-07T06:04:07.979Z,4.75
2022-10-07T06:06:48.890Z,5.45
2022-10-07T06:09:48.505Z,4.88
2022-10-07T06:12:48.831Z,5.22
2022-10-07T06:15:29.921Z,5.00
2022-10-07T06:18:10.801Z,4.82
2022-10-07T06:21:03.870Z,3.90
2022-10-07T06:23:43.818Z,4.63
2022-10-07T06:26:24.922Z,4.45
2022-10-07T06:29:04.811Z,3.83
2022-10-07T06:31:46.485Z,4.03
2022-10-07T06:34:27.801Z,4.53
2022-10-07T06:37:08.878Z,5.40
2022-10-07T06:39:59.496Z,3.90
2022-10-07T06:42:33.908Z,4.72
2022-10-07T06:45:20.839Z,3.55
2022-10-07T06:47:54.880Z,4.28
2022-10-07T06:50:41.825Z,3.92
2022-10-07T06:53:22.803Z,3.90
2022-10-07T06:56:10.837Z,4.35
2022-10-07T06:58:44.875Z,3.55
2022-10-07T07:01:32.001Z,3.22
2022-10-07T07:04:12.819Z,4.10
2022-10-07T07:07:06.810Z,3.42
2022-10-07T07:10:00.854Z,3.78
2022-10-07T07:12:48.154Z,4.05
2022-10-07T07:15:21.897Z,4.00
2022-10-07T07:18:09.821Z,2.33
2022-10-07T07:20:51.836Z,3.78
2022-10-07T07:23:46.848Z,3.38
2022-10-07T07:26:41.839Z,3.00
2022-10-07T07:29:28.817Z,3.35
2022-10-07T07:32:04.455Z,2.30
2022-10-07T07:37:38.827Z,3.65
2022-10-07T07:40:33.826Z,3.67
2022-10-07T07:43:27.807Z,3.88
2022-10-07T07:46:21.855Z,4.28
2022-10-07T07:51:43.942Z,3.80
2022-10-07T07:54:35.825Z,3.83
2022-10-07T07:57:10.933Z,4.22
2022-10-07T07:59:57.819Z,3.85
2022-10-07T08:02:31.904Z,3.53
2022-10-07T08:05:23.509Z,3.83
2022-10-07T08:08:04.920Z,4.10
2022-10-07T08:10:52.821Z,4.40
2022-10-07T08:13:26.882Z,3.55
2022-10-07T08:16:14.899Z,3.00
2022-10-07T08:18:49.925Z,3.83
2022-10-07T08:21:40.831Z,2.88
2022-10-07T08:24:14.955Z,2.80
2022-10-07T08:27:01.839Z,3.13
2022-10-07T08:29:35.893Z,2.63
2022-10-07T08:32:22.802Z,3.03
2022-10-07T08:34:56.898Z,3.22
2022-10-07T08:37:44.050Z,3.42
2022-10-07T08:40:29.844Z,1.85
2022-10-07T08:43:16.823Z,2.83
2022-10-07T08:45:57.903Z,3.83
2022-10-07T08:48:52.839Z,2.35
2022-10-07T08:51:48.803Z,2.30
2022-10-07T08:54:24.910Z,2.38
2022-10-07T08:57:16.831Z,2.83
2022-10-07T08:59:53.895Z,1.55
2022-10-07T09:03:07.816Z,2.20
2022-10-07T09:05:45.953Z,2.08
2022-10-07T09:08:38.847Z,2.40
2022-10-07T09:11:25.109Z,3.63
2022-10-07T09:14:21.922Z,2.42
2022-10-07T09:17:12.854Z,2.20
2022-10-07T09:20:13.839Z,1.95
2022-10-07T09:23:03.844Z,1.70
2022-10-07T09:28:34.883Z,3.00
2022-10-07T09:31:09.126Z,2.05
2022-10-07T09:33:59.851Z,3.13
2022-10-07T09:36:33.933Z,2.47
2022-10-07T09:39:30.857Z,2.10
2022-10-07T09:42:04.916Z,1.77
2022-10-07T09:45:00.844Z,2.53
2022-10-07T09:47:42.140Z,1.90
2022-10-07T09:50:39.834Z,1.80
2022-10-07T09:53:31.846Z,1.85
2022-10-07T09:56:37.855Z,2.25
2022-10-07T09:59:38.890Z,1.95
2022-10-07T10:02:38.001Z,2.10
2022-10-07T10:05:30.834Z,1.60
2022-10-07T10:08:09.927Z,1.90
2022-10-07T10:10:58.880Z,2.03
2022-10-07T10:13:34.984Z,3.15
2022-10-07T10:16:40.810Z,2.10
2022-10-07T10:19:36.300Z,1.80
2022-10-07T10:22:37.836Z,2.35
2022-10-07T10:25:31.758Z,1.92
2022-10-07T10:28:51.847Z,1.20
2022-10-07T10:31:31.038Z,1.92
2022-10-07T10:34:31.836Z,1.67
2022-10-07T10:37:27.866Z,1.10
2022-10-07T10:40:28.840Z,1.65
2022-10-07T10:43:22.872Z,1.60
2022-10-07T10:46:18.990Z,1.90
2022-10-07T10:48:59.881Z,1.38
2022-10-07T10:52:13.262Z,1.60
2022-10-07T10:55:12.850Z,1.52
2022-10-07T10:58:01.471Z,1.50
2022-10-07T11:00:59.552Z,1.92
2022-10-07T11:03:50.949Z,1.85
2022-10-07T11:06:34.863Z,2.83
2022-10-07T11:09:24.642Z,1.85
2022-10-07T11:12:11.882Z,1.77
2022-10-07T11:14:57.710Z,2.38
2022-10-07T11:17:39.879Z,2.30
2022-10-07T11:20:25.266Z,1.58
2022-10-07T11:23:20.881Z,1.52
2022-10-07T11:26:05.251Z,1.17
2022-10-07T11:28:52.894Z,1.63
2022-10-07T11:31:33.438Z,1.65
2022-10-07T11:34:26.860Z,1.55
2022-10-07T11:37:07.130Z,1.73
2022-10-07T11:39:54.868Z,2.17
2022-10-07T11:42:33.974Z,2.97
2022-10-07T11:45:26.879Z,2.15
2022-10-07T11:48:07.953Z,1.70
2022-10-07T11:51:07.883Z,1.85
2022-10-07T11:53:45.949Z,2.13
2022-10-07T11:56:34.885Z,1.75
2022-10-07T11:59:11.978Z,1.70
2022-10-07T12:01:58.960Z,1.80
2022-10-07T12:04:44.030Z,1.80
2022-10-07T12:07:57.886Z,1.83
2022-10-07T12:10:45.866Z,1.90
2022-10-07T12:13:36.998Z,2.03
2022-10-07T12:16:44.033Z,1.80
2022-10-07T12:19:39.868Z,2.03
2022-10-07T12:22:26.900Z,1.80
2022-10-07T12:25:20.958Z,2.13
2022-10-07T12:28:08.935Z,2.03
2022-10-07T12:31:00.175Z,1.65
2022-10-07T12:33:58.897Z,2.28
2022-10-07T12:36:35.355Z,1.77
2022-10-07T12:39:21.898Z,1.73
2022-10-07T12:42:02.880Z,1.95
2022-10-07T12:44:58.902Z,1.98
2022-10-07T12:47:35.089Z,2.60
2022-10-07T12:50:25.893Z,1.75
2022-10-07T12:53:09.616Z,2.30
2022-10-07T12:55:59.881Z,1.73
2022-10-07T12:59:24.897Z,1.80
2022-10-07T13:02:49.899Z,2.20
2022-10-07T13:06:13.906Z,1.80
2022-10-07T13:08:47.966Z,1.75
2022-10-07T13:11:47.990Z,2.00
2022-10-07T13:14:50.038Z,1.88
2022-10-07T13:18:06.261Z,1.95
2022-10-07T13:21:20.913Z,1.80
2022-10-07T13:23:56.019Z,1.80
2022-10-07T13:26:43.905Z,1.83
2022-10-07T13:29:24.006Z,1.75
2022-10-07T13:32:26.918Z,2.05
2022-10-07T13:35:20.752Z,1.90
2022-10-07T13:38:08.920Z,2.13
2022-10-07T13:40:42.485Z,1.80
2022-10-07T13:43:29.919Z,2.00
2022-10-07T13:46:14.941Z,1.77
2022-10-07T13:48:59.246Z,2.42
2022-10-07T13:51:44.927Z,1.92
2022-10-07T13:54:29.041Z,2.00
2022-10-07T13:57:13.023Z,1.80
2022-10-07T14:00:02.929Z,2.25
2022-10-07T14:02:40.097Z,1.75
2022-10-07T14:05:35.923Z,1.70
2022-10-07T14:08:15.730Z,1.90
2022-10-07T14:11:19.948Z,1.92
2022-10-07T14:14:02.455Z,1.73
2022-10-07T14:16:46.036Z,1.95
2022-10-07T14:19:26.934Z,1.92
2022-10-07T14:22:15.910Z,2.28
2022-10-07T14:24:55.318Z,1.98
2022-10-07T14:27:54.935Z,2.45
2022-10-07T14:30:55.510Z,2.10
2022-10-07T14:34:22.941Z,2.13
2022-10-07T14:37:29.595Z,2.08
2022-10-07T14:40:27.002Z,2.28
2022-10-07T14:43:06.911Z,2.05
2022-10-07T14:45:48.241Z,1.95
2022-10-07T14:48:27.912Z,3.42
2022-10-07T14:51:09.787Z,2.40
2022-10-07T14:53:50.943Z,2.33
2022-10-07T14:56:34.991Z,2.25
2022-10-07T14:59:20.931Z,1.58
2022-10-07T15:02:02.011Z,2.03
2022-10-07T15:04:41.958Z,2.83
2022-10-07T15:07:24.905Z,1.95
2022-10-07T15:10:04.939Z,1.80
2022-10-07T15:12:52.966Z,1.73
2022-10-07T15:15:32.922Z,1.83
2022-10-07T15:18:20.946Z,1.90
2022-10-07T15:20:56.744Z,2.40
2022-10-07T15:23:44.941Z,2.80
2022-10-07T15:26:19.297Z,2.60
2022-10-07T15:29:07.941Z,1.77
2022-10-07T15:31:45.755Z,1.70
2022-10-07T15:34:34.009Z,2.03
2022-10-07T15:37:09.189Z,2.20
2022-10-07T15:39:57.964Z,2.22
2022-10-07T15:42:31.853Z,2.30
2022-10-07T15:45:19.950Z,3.40
2022-10-07T15:47:58.107Z,2.72
2022-10-07T15:50:47.944Z,3.20
2022-10-07T15:53:29.939Z,5.85
2022-10-07T15:56:11.055Z,8.15
2022-10-07T15:58:52.020Z,10.55
2022-10-07T16:01:33.090Z,5.97
2022-10-07T16:04:17.952Z,3.33
2022-10-07T16:06:59.587Z,5.50
2022-10-07T16:09:39.970Z,8.20
2022-10-07T16:12:21.463Z,8.43
2022-10-07T16:15:00.962Z,16.42
2022-10-07T16:17:42.089Z,11.52
2022-10-07T16:20:28.931Z,7.82
2022-10-07T16:23:03.093Z,7.07
2022-10-07T16:25:49.956Z,39.75
2022-10-07T16:28:42.766Z,13.52
2022-10-07T16:31:31.003Z,6.90
2022-10-07T16:34:05.000Z,50.53
2022-10-07T16:36:55.967Z,77.20
2022-10-07T16:39:36.962Z,29.77
2022-10-07T16:42:30.950Z,25.30
2022-10-07T16:45:17.901Z,44.47
2022-10-07T16:47:52.027Z,61.17
2022-10-07T16:50:38.935Z,33.45
2022-10-07T16:53:19.944Z,41.42
2022-10-07T16:56:17.937Z,23.45
2022-10-07T16:59:12.965Z,64.22
2022-10-07T17:02:09.959Z,40.30
2022-10-07T17:04:56.960Z,18.63
2022-10-07T17:07:37.984Z,11.85
2022-10-07T17:10:31.949Z,11.02
2022-10-07T17:13:19.954Z,10.63
2022-10-07T17:15:54.098Z,12.15
2022-10-07T17:18:40.952Z,15.85
2022-10-07T17:21:15.012Z,12.68
2022-10-07T17:24:04.961Z,12.45
2022-10-07T17:26:39.148Z,14.17
2022-10-07T17:29:27.972Z,22.45
2022-10-07T17:32:02.639Z,24.40
2022-10-07T17:35:48.963Z,19.20
2022-10-07T17:39:28.962Z,26.08
2022-10-07T17:42:48.004Z,38.05
2022-10-07T17:45:28.325Z,47.80
2022-10-07T17:48:48.975Z,45.67
2022-10-07T17:55:15.523Z,22.10
2022-10-07T17:58:00.053Z,17.52
2022-10-07T18:00:52.694Z,16.30
2022-10-07T18:03:47.912Z,15.13
2022-10-07T18:07:13.307Z,13.75
2022-10-07T18:10:32.824Z,13.13
2022-10-07T18:13:54.083Z,10.07
2022-10-07T18:16:58.115Z,7.93
2022-10-07T18:19:59.984Z,7.18
2022-10-07T18:22:37.124Z,7.38
2022-10-07T18:27:58.049Z,7.75
2022-10-07T18:30:44.965Z,21.00
2022-10-07T18:33:25.983Z,7.80
2022-10-07T18:36:21.982Z,6.63
2022-10-07T18:39:08.998Z,8.13
2022-10-07T18:41:56.987Z,9.35
2022-10-07T18:44:37.966Z,8.25
2022-10-07T18:47:19.193Z,8.15
2022-10-07T18:50:03.963Z,7.07
2022-10-07T18:52:45.116Z,6.45
2022-10-07T18:55:24.962Z,7.03
2022-10-07T18:58:06.061Z,6.13
2022-10-07T19:00:50.066Z,7.82
2022-10-07T19:03:33.438Z,5.93
2022-10-07T19:06:16.990Z,7.05
2022-10-07T19:09:02.059Z,5.80
2022-10-07T19:11:43.025Z,6.75
2022-10-07T19:14:25.965Z,7.07
2022-10-07T19:17:06.964Z,6.80
2022-10-07T19:19:48.071Z,4.80
2022-10-07T19:22:27.985Z,5.15
2022-10-07T19:25:27.804Z,5.20
2022-10-07T19:28:09.012Z,5.05
2022-10-07T19:30:56.989Z,4.70
2022-10-07T19:33:30.922Z,5.22
2022-10-07T19:36:18.977Z,5.15
2022-10-07T19:38:59.999Z,4.90
2022-10-07T19:41:42.737Z,5.63
2022-10-07T19:44:23.010Z,5.88
2022-10-07T19:47:04.200Z,5.80
2022-10-07T19:49:51.010Z,7.03
2022-10-07T19:52:32.995Z,6.25
2022-10-07T19:55:20.004Z,6.00
2022-10-07T19:58:08.026Z,6.18
2022-10-07T20:00:48.031Z,7.15
2022-10-07T20:03:29.069Z,8.20
2022-10-07T20:06:14.012Z,8.30
2022-10-07T20:08:55.072Z,8.13
2022-10-07T20:11:35.993Z,9.25
2022-10-07T20:14:23.994Z,8.95
2022-10-07T20:17:05.038Z,10.07
2022-10-07T20:19:46.177Z,11.55
2022-10-07T20:22:27.018Z,11.60
2022-10-07T20:25:15.009Z,11.20
2022-10-07T20:27:54.992Z,11.32
2022-10-07T20:30:36.187Z,9.63
2022-10-07T20:33:15.998Z,9.30
2022-10-07T20:36:04.035Z,10.48
2022-10-07T20:39:02.992Z,9.70
2022-10-07T20:42:09.045Z,9.38
2022-10-07T20:44:42.997Z,8.65
2022-10-07T20:47:30.988Z,9.45
2022-10-07T20:50:18.024Z,10.40
2022-10-07T20:52:59.002Z,11.07
2022-10-07T20:55:46.025Z,12.15
2022-10-07T20:58:20.138Z,13.65
2022-10-07T21:01:13.048Z,14.18
2022-10-07T21:03:47.121Z,12.63
2022-10-07T21:06:34.009Z,11.30
2022-10-07T21:09:08.116Z,10.77
2022-10-07T21:11:56.010Z,11.35
2022-10-07T21:14:32.902Z,13.65
2022-10-07T21:17:21.045Z,14.77
2022-10-07T21:19:55.929Z,12.70
2022-10-07T21:22:44.347Z,11.70
2022-10-07T21:25:25.004Z,12.73
2022-10-07T21:28:12.128Z,12.68
2022-10-07T21:30:53.067Z,12.18
2022-10-07T21:33:40.025Z,11.50
2022-10-07T21:36:23.026Z,11.20
2022-10-07T21:39:10.989Z,10.82
2022-10-07T21:41:45.136Z,11.48
2022-10-07T21:44:34.001Z,11.00
2022-10-07T21:47:08.095Z,10.73
2022-10-07T21:49:56.020Z,9.07
2022-10-07T21:52:30.103Z,8.98
2022-10-07T21:55:18.020Z,9.68
2022-10-07T21:57:52.092Z,8.43
2022-10-07T22:00:43.046Z,8.70
2022-10-07T22:03:17.094Z,8.30
2022-10-07T22:06:12.017Z,7.75
2022-10-07T22:08:56.204Z,8.07
2022-10-07T22:11:51.014Z,7.35
2022-10-07T22:14:38.053Z,9.57
2022-10-07T22:17:21.028Z,8.00
2022-10-07T22:20:16.034Z,7.88
2022-10-07T22:23:03.038Z,9.23
2022-10-07T22:25:37.093Z,7.78
2022-10-07T22:28:24.144Z,8.50
2022-10-07T22:31:05.052Z,7.80
2022-10-07T22:34:06.046Z,7.07
2022-10-07T22:36:53.046Z,7.60
2022-10-07T22:39:28.561Z,7.38
2022-10-07T22:42:15.024Z,7.47
2022-10-07T22:44:49.182Z,7.45
2022-10-07T22:47:36.030Z,7.90
2022-10-07T22:50:18.021Z,8.30
2022-10-07T22:53:12.021Z,7.38
2022-10-07T22:55:59.022Z,8.50
2022-10-07T22:58:33.089Z,7.45
2022-10-07T23:01:21.035Z,6.80
2022-10-07T23:03:55.186Z,7.30
2022-10-07T23:06:43.024Z,7.82
2022-10-07T23:09:17.104Z,8.50
2022-10-07T23:12:06.067Z,8.25
2022-10-07T23:14:48.048Z,8.55
2022-10-07T23:17:42.020Z,8.95
2022-10-07T23:20:34.048Z,9.75
2022-10-07T23:23:15.021Z,10.77
2022-10-07T23:26:03.024Z,9.93
2022-10-07T23:28:44.083Z,9.95
2022-10-07T23:31:34.159Z,9.35
2022-10-07T23:34:16.056Z,8.82
2022-10-07T23:37:10.034Z,9.13
2022-10-07T23:40:04.024Z,8.95
2022-10-07T23:45:26.160Z,8.63
2022-10-07T23:48:07.036Z,8.57
2022-10-07T23:51:05.907Z,8.65
2022-10-07T23:53:54.056Z,7.88
2022-10-07T23:56:28.118Z,8.77
2022-10-07T23:59:16.039Z,7.85
